Time;durP1;ratioP1;P1;durP2;ratioP2;P2;SDS_P1;SDS_P2;PMS_P1;PMS_P2;Temp;Humidity;BMP_temperature;BMP_pressure;BME280_temperature;BME280_humidity;BME280_pressure;Samples;Min_cycle;Max_cycle;Signal;HPM_P1;HPM_P2
2021/07/23 00:01:17;;;;;;;34.90;18.05;;;;;10.30;101452.00;;;;5089513;28;20101;-73
2021/07/23 00:03:45;;;;;;;37.53;18.50;;;;;10.30;101474.00;;;;5089280;28;20031;-74
2021/07/23 00:06:12;;;;;;;32.35;17.90;;;;;10.20;101479.00;;;;5089857;28;20020;-70
2021/07/23 00:08:38;;;;;;;31.83;16.85;;;;;10.20;101457.00;;;;5089525;28;20035;-73
2021/07/23 00:11:05;;;;;;;37.88;15.85;;;;;10.20;101446.00;;;;5089354;28;20024;-72
2021/07/23 00:13:32;;;;;;;29.63;16.67;;;;;10.10;101462.00;;;;5089599;28;20028;-72
2021/07/23 00:15:58;;;;;;;35.10;18.00;;;;;10.00;101455.00;;;;5090316;28;20073;-73
2021/07/23 00:18:25;;;;;;;40.53;20.00;;;;;10.10;101470.00;;;;5089168;28;20032;-72
2021/07/23 00:20:52;;;;;;;35.63;19.85;;;;;10.20;101452.00;;;;5089223;28;20119;-73
2021/07/23 00:23:19;;;;;;;32.55;16.60;;;;;10.20;101452.00;;;;5089401;28;20035;-74
2021/07/23 00:25:46;;;;;;;25.60;15.88;;;;;10.20;101456.00;;;;5089553;28;20070;-70
2021/07/23 00:28:14;;;;;;;21.20;14.55;;;;;10.20;101452.00;;;;5088126;28;20035;-72
2021/07/23 00:30:41;;;;;;;24.73;13.75;;;;;10.20;101430.00;;;;5088229;28;20046;-72
2021/07/23 00:33:07;;;;;;;22.45;13.40;;;;;10.20;101455.00;;;;5084969;28;20032;-71
2021/07/23 00:35:34;;;;;;;26.92;13.80;;;;;10.10;101442.00;;;;5089131;28;20024;-70
2021/07/23 00:38:01;;;;;;;26.05;12.60;;;;;10.10;101402.00;;;;5089872;28;20036;-70
2021/07/23 00:40:28;;;;;;;34.38;14.07;;;;;10.10;101436.00;;;;5088869;28;20030;-72
2021/07/23 00:42:55;;;;;;;26.33;14.30;;;;;10.10;101441.00;;;;5089168;28;20051;-73
2021/07/23 00:45:21;;;;;;;26.10;15.02;;;;;10.00;101428.00;;;;5088764;28;20081;-72
2021/07/23 00:47:54;;;;;;;29.20;14.80;;;;;9.90;101417.00;;;;5087764;28;20085;-72
2021/07/23 00:50:21;;;;;;;31.80;13.73;;;;;9.90;101435.00;;;;5087868;28;20085;-73
2021/07/23 00:52:51;;;;;;;30.20;13.57;;;;;9.90;101440.00;;;;5089003;28;20036;-74
2021/07/23 00:55:18;;;;;;;26.48;12.68;;;;;9.80;101408.00;;;;5088329;28;20032;-72
2021/07/23 00:57:45;;;;;;;21.55;12.23;;;;;9.80;101429.00;;;;5088652;28;20051;-72
2021/07/23 01:00:13;;;;;;;22.58;13.88;;;;;9.80;101414.00;;;;5088319;28;20506;-73
2021/07/23 01:02:40;;;;;;;22.13;13.82;;;;;9.80;101427.00;;;;5088609;28;20081;-72
2021/07/23 01:05:07;;;;;;;25.35;13.98;;;;;9.80;101416.00;;;;5087809;28;20032;-73
2021/07/23 01:07:35;;;;;;;19.67;13.32;;;;;9.80;101425.00;;;;5088258;28;20116;-72
2021/07/23 01:10:03;;;;;;;23.88;13.30;;;;;9.80;101420.00;;;;5087259;28;20055;-71
2021/07/23 01:12:30;;;;;;;18.88;12.95;;;;;9.80;101427.00;;;;5088182;28;20062;-74
2021/07/23 01:14:59;;;;;;;17.20;11.40;;;;;9.80;101423.00;;;;5087649;28;20036;-73
2021/07/23 01:17:27;;;;;;;20.90;12.60;;;;;9.80;101430.00;;;;5088160;28;20561;-72
2021/07/23 01:20:02;;;;;;;22.23;13.63;;;;;9.70;101432.00;;;;5087644;28;20031;-71
2021/07/23 01:22:31;;;;;;;25.70;14.65;;;;;9.70;101435.00;;;;5088066;28;20449;-73
2021/07/23 01:24:58;;;;;;;28.23;13.98;;;;;9.60;101434.00;;;;5088757;28;20073;-72
2021/07/23 01:27:27;;;;;;;21.05;12.10;;;;;9.60;101420.00;;;;5088244;28;20028;-72
2021/07/23 01:30:14;;;;;;;17.45;12.02;;;;;9.60;101406.00;;;;5088218;28;20024;-73
2021/07/23 01:32:41;;;;;;;19.67;11.43;;;;;9.60;101433.00;;;;5087732;28;20067;-74
2021/07/23 01:35:09;;;;;;;21.38;12.55;;;;;9.50;101408.00;;;;5087560;28;20598;-72
2021/07/23 01:37:37;;;;;;;22.52;11.98;;;;;9.50;101419.00;;;;5086263;28;20073;-70
2021/07/23 01:40:05;;;;;;;15.88;11.45;;;;;9.40;101425.00;;;;5084497;28;20024;-73
2021/07/23 01:42:33;;;;;;;21.20;12.95;;;;;9.40;101425.00;;;;5086495;28;20530;-72
2021/07/23 01:45:00;;;;;;;17.42;12.02;;;;;9.50;101423.00;;;;5087350;28;20054;-73
2021/07/23 01:47:26;;;;;;;21.20;13.23;;;;;9.40;101422.00;;;;5087959;28;20028;-73
2021/07/23 01:49:53;;;;;;;26.92;13.60;;;;;9.40;101425.00;;;;5087568;28;20120;-73
2021/07/23 01:52:20;;;;;;;22.25;12.05;;;;;9.40;101392.00;;;;5087769;28;20039;-70
2021/07/23 01:54:47;;;;;;;25.77;12.80;;;;;9.30;101441.00;;;;5087073;28;20043;-71
2021/07/23 01:57:14;;;;;;;24.90;14.30;;;;;9.30;101447.00;;;;5087487;28;20031;-73
2021/07/23 01:59:40;;;;;;;28.60;13.70;;;;;9.20;101429.00;;;;5087995;28;20038;-73
2021/07/23 02:02:07;;;;;;;23.35;15.68;;;;;9.30;101449.00;;;;5087699;28;20035;-73
2021/07/23 02:04:35;;;;;;;25.20;14.95;;;;;9.30;101446.00;;;;5087396;28;20035;-73
2021/07/23 02:07:02;;;;;;;24.33;13.85;;;;;9.20;101443.00;;;;5087427;28;20073;-72
2021/07/23 02:09:29;;;;;;;26.20;13.63;;;;;9.20;101457.00;;;;5087792;28;20475;-72
2021/07/23 02:11:56;;;;;;;24.73;12.05;;;;;9.20;101442.00;;;;5087353;28;20110;-71
2021/07/23 02:14:24;;;;;;;27.83;13.60;;;;;9.20;101427.00;;;;5086924;28;20035;-72
2021/07/23 02:16:51;;;;;;;27.35;14.45;;;;;9.20;101426.00;;;;5087193;28;20043;-71
2021/07/23 02:19:17;;;;;;;28.70;16.13;;;;;9.30;101436.00;;;;5086671;28;20533;-72
2021/07/23 02:21:44;;;;;;;22.25;14.63;;;;;9.30;101415.00;;;;5087429;28;20028;-74
2021/07/23 02:24:11;;;;;;;19.80;13.88;;;;;9.20;101418.00;;;;5086591;28;20825;-71
2021/07/23 02:26:37;;;;;;;25.65;15.18;;;;;9.30;101415.00;;;;5086963;28;20051;-72
2021/07/23 02:29:04;;;;;;;21.65;15.05;;;;;9.20;101418.00;;;;5085341;28;20032;-71
2021/07/23 02:31:30;;;;;;;30.83;15.63;;;;;9.10;101412.00;;;;5086982;28;20020;-73
2021/07/23 02:33:57;;;;;;;27.17;16.38;;;;;9.20;101404.00;;;;5086941;28;20483;-73
2021/07/23 02:36:24;;;;;;;28.13;14.50;;;;;9.20;101401.00;;;;5087420;28;20034;-73
2021/07/23 02:38:50;;;;;;;21.08;14.43;;;;;9.10;101400.00;;;;5087061;28;20032;-73
2021/07/23 02:41:17;;;;;;;23.80;14.80;;;;;9.00;101410.00;;;;5086673;28;20073;-71
2021/07/23 02:43:47;;;;;;;20.50;14.10;;;;;9.00;101402.00;;;;5086692;28;20127;-74
2021/07/23 02:46:14;;;;;;;18.00;12.80;;;;;9.00;101400.00;;;;5086565;28;20499;-73
2021/07/23 02:48:41;;;;;;;19.58;11.88;;;;;9.00;101390.00;;;;5086947;28;20502;-73
2021/07/23 02:51:08;;;;;;;21.23;12.40;;;;;8.90;101401.00;;;;5087339;28;20510;-73
2021/07/23 02:53:35;;;;;;;17.58;11.50;;;;;8.80;101376.00;;;;5086571;28;20076;-71
2021/07/23 02:56:01;;;;;;;19.83;12.73;;;;;8.70;101374.00;;;;5086506;28;20164;-72
2021/07/23 02:58:28;;;;;;;15.07;11.77;;;;;8.60;101380.00;;;;5086485;28;20479;-73
2021/07/23 03:00:54;;;;;;;16.92;11.25;;;;;8.60;101385.00;;;;5086666;28;20024;-73
2021/07/23 03:03:21;;;;;;;17.95;11.57;;;;;8.70;101394.00;;;;5085384;28;20046;-72
2021/07/23 03:05:48;;;;;;;17.85;12.80;;;;;8.70;101375.00;;;;5086264;28;20035;-71
2021/07/23 03:08:14;;;;;;;18.02;13.90;;;;;8.60;101384.00;;;;5086956;28;20034;-71
2021/07/23 03:10:41;;;;;;;16.75;13.40;;;;;8.70;101360.00;;;;5086162;28;20132;-71
2021/07/23 03:13:08;;;;;;;24.35;13.38;;;;;8.60;101365.00;;;;5086154;28;20046;-73
2021/07/23 03:15:34;;;;;;;18.20;12.80;;;;;8.70;101369.00;;;;5086527;28;20036;-72
2021/07/23 03:18:01;;;;;;;20.17;12.05;;;;;8.70;101384.00;;;;5086581;28;20038;-71
2021/07/23 03:20:27;;;;;;;16.08;12.15;;;;;8.70;101382.00;;;;5085296;28;20032;-73
2021/07/23 03:22:54;;;;;;;18.08;12.70;;;;;8.70;101373.00;;;;5086916;28;20105;-73
2021/07/23 03:25:20;;;;;;;20.52;14.40;;;;;8.60;101378.00;;;;5086735;28;20497;-74
2021/07/23 03:27:47;;;;;;;24.55;14.20;;;;;8.60;101366.00;;;;5086074;28;20051;-72
2021/07/23 03:30:14;;;;;;;18.30;13.07;;;;;8.50;101380.00;;;;5086873;28;20515;-71
2021/07/23 03:32:40;;;;;;;19.83;14.82;;;;;8.50;101392.00;;;;5086659;28;20540;-73
2021/07/23 03:35:07;;;;;;;20.38;14.88;;;;;8.50;101384.00;;;;5086354;28;20395;-71
2021/07/23 03:37:34;;;;;;;22.42;15.05;;;;;8.50;101372.00;;;;5085961;28;20487;-71
2021/07/23 03:40:00;;;;;;;21.52;14.95;;;;;8.50;101388.00;;;;5086572;28;20034;-71
2021/07/23 03:42:28;;;;;;;33.70;17.58;;;;;8.50;101394.00;;;;5086186;28;20077;-72
2021/07/23 03:44:54;;;;;;;26.10;18.65;;;;;8.50;101388.00;;;;5086573;28;20062;-73
2021/07/23 03:47:21;;;;;;;24.05;16.25;;;;;8.50;101377.00;;;;5086337;28;20036;-71
2021/07/23 03:49:47;;;;;;;29.70;17.65;;;;;8.50;101375.00;;;;5086553;28;20500;-72
2021/07/23 03:52:14;;;;;;;32.00;19.88;;;;;8.50;101384.00;;;;5086540;28;20028;-74
2021/07/23 03:54:40;;;;;;;30.30;18.77;;;;;8.50;101375.00;;;;5085539;28;20047;-73
2021/07/23 03:57:07;;;;;;;33.60;18.20;;;;;8.40;101390.00;;;;5086593;28;20045;-73
2021/07/23 03:59:35;;;;;;;28.77;18.10;;;;;8.50;101386.00;;;;5086065;28;20047;-74
2021/07/23 04:02:02;;;;;;;33.22;19.13;;;;;8.50;101377.00;;;;5086110;28;20036;-73
2021/07/23 04:04:29;;;;;;;31.58;19.58;;;;;8.60;101382.00;;;;5086691;28;20067;-73
2021/07/23 04:06:56;;;;;;;34.22;20.85;;;;;8.50;101382.00;;;;5087606;28;20036;-71
2021/07/23 04:09:23;;;;;;;25.70;18.77;;;;;8.50;101364.00;;;;5089276;28;20585;-71
2021/07/23 04:11:51;;;;;;;24.08;16.90;;;;;8.50;101385.00;;;;5089319;28;20031;-73
2021/07/23 04:14:19;;;;;;;22.13;16.27;;;;;8.40;101386.00;;;;5089376;28;20039;-71
2021/07/23 04:16:46;;;;;;;26.77;18.15;;;;;8.40;101369.00;;;;5089762;28;20028;-72
2021/07/23 04:19:12;;;;;;;28.10;17.05;;;;;8.50;101386.00;;;;5089672;28;20509;-71
2021/07/23 04:21:39;;;;;;;22.77;15.77;;;;;8.40;101372.00;;;;5089719;28;20028;-73
2021/07/23 04:24:06;;;;;;;18.48;15.43;;;;;8.40;101375.00;;;;5089646;28;20372;-72
2021/07/23 04:26:34;;;;;;;20.00;15.77;;;;;8.40;101378.00;;;;5089714;28;20028;-72
2021/07/23 04:29:01;;;;;;;23.50;16.70;;;;;8.30;101379.00;;;;5089369;28;20111;-71
2021/07/23 04:31:28;;;;;;;23.17;14.95;;;;;8.20;101370.00;;;;5089335;28;20032;-73
2021/07/23 04:33:58;;;;;;;22.88;15.30;;;;;8.10;101366.00;;;;5088865;28;20040;-71
2021/07/23 04:36:26;;;;;;;22.27;15.18;;;;;8.10;101375.00;;;;5088688;28;20093;-73
2021/07/23 04:38:52;;;;;;;26.40;15.90;;;;;8.00;101380.00;;;;5088838;28;20043;-73
2021/07/23 04:41:19;;;;;;;20.40;15.52;;;;;8.00;101358.00;;;;5089168;28;20495;-73
2021/07/23 04:43:45;;;;;;;22.27;15.15;;;;;8.00;101362.00;;;;5089007;28;20087;-71
2021/07/23 04:46:12;;;;;;;20.05;14.88;;;;;7.90;101342.00;;;;5088799;28;20028;-72
2021/07/23 04:48:38;;;;;;;22.58;15.38;;;;;7.90;101339.00;;;;5089103;28;20066;-72
2021/07/23 04:51:06;;;;;;;20.98;15.30;;;;;7.90;101343.00;;;;5089072;28;20023;-73
2021/07/23 04:53:32;;;;;;;26.27;16.55;;;;;8.10;101358.00;;;;5088421;28;20035;-71
2021/07/23 04:56:01;;;;;;;22.35;15.93;;;;;8.10;101339.00;;;;5088985;28;20097;-72
2021/07/23 04:58:28;;;;;;;26.33;15.93;;;;;8.00;101337.00;;;;5088602;28;20093;-70
2021/07/23 05:00:55;;;;;;;25.75;16.20;;;;;8.00;101349.00;;;;5088791;28;20135;-71
2021/07/23 05:03:25;;;;;;;23.85;15.77;;;;;8.10;101363.00;;;;5088481;28;20042;-71
2021/07/23 05:05:55;;;;;;;23.42;15.65;;;;;8.00;101334.00;;;;5088426;28;20066;-73
2021/07/23 05:08:21;;;;;;;25.38;15.57;;;;;8.00;101329.00;;;;5088583;28;20028;-71
2021/07/23 05:10:48;;;;;;;19.08;16.00;;;;;8.00;101337.00;;;;5088838;28;20031;-73
2021/07/23 05:13:15;;;;;;;22.15;14.85;;;;;7.90;101340.00;;;;5088496;28;20032;-72
2021/07/23 05:15:41;;;;;;;27.67;15.98;;;;;7.90;101337.00;;;;5088373;28;20040;-72
2021/07/23 05:18:11;;;;;;;22.60;15.65;;;;;8.00;101326.00;;;;5088090;28;20463;-71
2021/07/23 05:20:38;;;;;;;21.60;15.07;;;;;8.00;101329.00;;;;5088684;28;20523;-73
2021/07/23 05:23:05;;;;;;;22.50;14.30;;;;;8.00;101334.00;;;;5088215;28;20039;-72
2021/07/23 05:25:32;;;;;;;22.33;15.50;;;;;8.00;101326.00;;;;5086829;28;20028;-72
2021/07/23 05:28:00;;;;;;;20.10;15.63;;;;;7.90;101340.00;;;;5088104;28;20573;-73
2021/07/23 05:30:26;;;;;;;24.65;16.58;;;;;7.90;101334.00;;;;5087706;28;20451;-71
2021/07/23 05:32:53;;;;;;;19.70;13.15;;;;;7.80;101317.00;;;;5087646;28;20020;-71
2021/07/23 05:35:19;;;;;;;13.65;11.45;;;;;7.80;101314.00;;;;5088630;28;20601;-71
2021/07/23 05:37:46;;;;;;;25.08;10.63;;;;;7.80;101328.00;;;;5088359;28;20360;-73
2021/07/23 05:40:16;;;;;;;16.45;12.35;;;;;7.70;101330.00;;;;5088024;28;20030;-72
2021/07/23 05:42:43;;;;;;;20.80;13.57;;;;;7.70;101328.00;;;;5087276;28;20139;-71
2021/07/23 05:45:10;;;;;;;23.10;15.95;;;;;7.70;101320.00;;;;5087353;28;20044;-73
2021/07/23 05:47:37;;;;;;;13.77;12.30;;;;;7.60;101322.00;;;;5088044;28;20123;-70
2021/07/23 05:50:04;;;;;;;18.50;14.65;;;;;7.50;101320.00;;;;5087994;28;20028;-73
2021/07/23 05:52:31;;;;;;;22.33;15.57;;;;;7.50;101306.00;;;;5087826;28;20506;-73
2021/07/23 05:54:57;;;;;;;18.85;15.05;;;;;7.60;101318.00;;;;5087970;28;20028;-71
2021/07/23 05:57:24;;;;;;;19.50;14.13;;;;;7.60;101313.00;;;;5088384;28;20040;-73
2021/07/23 05:59:50;;;;;;;24.75;16.45;;;;;7.50;101309.00;;;;5087515;28;20399;-71
2021/07/23 06:02:17;;;;;;;21.85;15.20;;;;;7.60;101298.00;;;;5087498;28;20517;-71
2021/07/23 06:04:43;;;;;;;18.83;13.95;;;;;7.50;101303.00;;;;5087071;28;20093;-73
2021/07/23 06:07:10;;;;;;;20.75;15.35;;;;;7.50;101309.00;;;;5087728;28;20041;-72
2021/07/23 06:09:37;;;;;;;22.98;16.75;;;;;7.40;101309.00;;;;5087328;28;20024;-74
2021/07/23 06:12:03;;;;;;;28.42;21.20;;;;;7.40;101300.00;;;;5087110;28;20127;-72
2021/07/23 06:14:30;;;;;;;22.38;16.20;;;;;7.40;101295.00;;;;5086906;28;20791;-72
2021/07/23 06:16:57;;;;;;;22.98;16.45;;;;;7.30;101309.00;;;;5087255;28;20431;-71
2021/07/23 06:19:23;;;;;;;23.45;16.08;;;;;7.40;101306.00;;;;5087450;28;20032;-73
2021/07/23 06:21:50;;;;;;;22.60;15.77;;;;;7.40;101269.00;;;;5087721;28;20479;-73
2021/07/23 06:24:17;;;;;;;23.73;17.13;;;;;7.30;101290.00;;;;5086865;28;20663;-73
2021/07/23 06:26:43;;;;;;;23.27;15.57;;;;;7.40;101295.00;;;;5087022;28;20124;-73
2021/07/23 06:29:10;;;;;;;24.00;16.00;;;;;7.40;101295.00;;;;5086758;28;20126;-73
2021/07/23 06:31:37;;;;;;;26.25;16.85;;;;;7.40;101292.00;;;;5086817;28;20032;-72
2021/07/23 06:34:04;;;;;;;21.55;15.75;;;;;7.40;101285.00;;;;5086492;28;20098;-71
2021/07/23 06:36:34;;;;;;;27.48;16.00;;;;;7.40;101275.00;;;;5087182;28;20020;-71
2021/07/23 06:39:00;;;;;;;22.15;15.45;;;;;7.30;101275.00;;;;5086991;28;20035;-72
2021/07/23 06:41:27;;;;;;;23.60;15.90;;;;;7.40;101280.00;;;;5087250;28;20036;-71
2021/07/23 06:43:53;;;;;;;18.92;16.15;;;;;7.40;101260.00;;;;5087392;28;20738;-74
2021/07/23 06:46:20;;;;;;;26.88;16.75;;;;;7.30;101267.00;;;;5086814;28;20024;-73
2021/07/23 06:48:46;;;;;;;24.48;14.98;;;;;7.40;101267.00;;;;5086875;28;20047;-73
2021/07/23 06:51:14;;;;;;;20.85;15.88;;;;;7.40;101273.00;;;;5086668;28;20017;-71
2021/07/23 06:53:40;;;;;;;24.95;15.50;;;;;7.40;101262.00;;;;5086484;28;20081;-72
2021/07/23 06:56:08;;;;;;;27.83;16.33;;;;;7.40;101278.00;;;;5086127;28;20074;-73
2021/07/23 06:58:35;;;;;;;21.55;14.48;;;;;7.40;101286.00;;;;5086301;28;20059;-73
2021/07/23 07:01:06;;;;;;;57.40;12.95;;;;;7.30;101276.00;;;;5086564;28;20129;-70
2021/07/23 07:03:33;;;;;;;90.03;11.23;;;;;7.30;101266.00;;;;5086297;28;20057;-73
2021/07/23 07:06:01;;;;;;;38.05;11.50;;;;;7.20;101273.00;;;;5086661;28;20032;-71
2021/07/23 07:08:28;;;;;;;16.42;12.60;;;;;7.20;101270.00;;;;5086856;28;20028;-71
2021/07/23 07:10:54;;;;;;;29.08;16.02;;;;;7.20;101257.00;;;;5087135;28;20165;-72
2021/07/23 07:13:21;;;;;;;20.52;12.48;;;;;7.00;101252.00;;;;5086700;28;20501;-71
2021/07/23 07:15:48;;;;;;;18.73;13.75;;;;;7.00;101277.00;;;;5086651;28;20028;-70
2021/07/23 07:18:14;;;;;;;19.00;13.18;;;;;7.10;101255.00;;;;5086649;28;20521;-72
2021/07/23 07:20:41;;;;;;;20.40;12.43;;;;;7.10;101271.00;;;;5086327;28;20442;-72
2021/07/23 07:23:08;;;;;;;18.17;16.15;;;;;7.10;101263.00;;;;5086447;28;20112;-71
2021/07/23 07:25:34;;;;;;;19.20;13.73;;;;;7.10;101272.00;;;;5086324;28;20038;-71
2021/07/23 07:28:02;;;;;;;22.13;16.02;;;;;7.10;101261.00;;;;5086809;28;20024;-73
2021/07/23 07:30:29;;;;;;;18.75;14.73;;;;;7.20;101268.00;;;;5086867;28;20436;-72
2021/07/23 07:32:56;;;;;;;26.70;13.85;;;;;7.30;101263.00;;;;5086352;28;20028;-72
2021/07/23 07:35:23;;;;;;;19.38;14.98;;;;;7.20;101247.00;;;;5086392;28;20125;-71
2021/07/23 07:37:50;;;;;;;18.73;15.27;;;;;6.90;101230.00;;;;5086482;28;20064;-73
2021/07/23 07:40:16;;;;;;;18.02;14.23;;;;;7.00;101250.00;;;;5086019;28;20032;-71
2021/07/23 07:42:43;;;;;;;20.15;16.20;;;;;7.00;101245.00;;;;5088179;28;20529;-73
2021/07/23 07:45:10;;;;;;;20.63;14.75;;;;;7.00;101249.00;;;;5090488;28;20387;-71
2021/07/23 07:47:37;;;;;;;17.27;14.77;;;;;6.90;101253.00;;;;5090075;28;20024;-70
2021/07/23 07:50:05;;;;;;;23.10;15.40;;;;;7.00;101267.00;;;;5090212;28;20402;-73
2021/07/23 07:52:32;;;;;;;24.33;14.07;;;;;7.00;101259.00;;;;5089929;28;20099;-71
2021/07/23 07:54:59;;;;;;;20.60;14.80;;;;;7.00;101246.00;;;;5090075;28;20043;-70
2021/07/23 07:57:25;;;;;;;22.92;14.85;;;;;7.00;101261.00;;;;5090164;28;20031;-73
2021/07/23 07:59:52;;;;;;;20.83;14.93;;;;;7.10;101240.00;;;;5089949;28;20043;-71
2021/07/23 08:02:19;;;;;;;24.42;15.55;;;;;7.00;101252.00;;;;5089721;28;20111;-73
2021/07/23 08:04:45;;;;;;;20.60;14.82;;;;;6.90;101256.00;;;;5089459;28;20485;-72
2021/07/23 08:07:18;;;;;;;22.65;13.70;;;;;6.90;101263.00;;;;5090178;28;20051;-73
2021/07/23 08:09:53;;;;;;;26.10;14.80;;;;;6.90;101238.00;;;;5089265;28;20040;-73
2021/07/23 08:12:23;;;;;;;19.73;14.05;;;;;7.00;101259.00;;;;5089631;28;20149;-71
2021/07/23 08:14:49;;;;;;;19.27;15.43;;;;;6.90;101240.00;;;;5089883;28;20035;-71
2021/07/23 08:17:17;;;;;;;28.65;15.38;;;;;6.90;101249.00;;;;5089091;28;20020;-72
2021/07/23 08:19:44;;;;;;;22.38;13.75;;;;;6.90;101239.00;;;;5089085;28;20073;-70
2021/07/23 08:22:11;;;;;;;20.10;14.20;;;;;6.90;101231.00;;;;5089137;28;20035;-73
2021/07/23 08:24:38;;;;;;;19.05;12.35;;;;;6.90;101250.00;;;;5089857;28;20375;-72
2021/07/23 08:27:05;;;;;;;19.08;14.93;;;;;6.80;101253.00;;;;5089606;28;20053;-73
2021/07/23 08:29:32;;;;;;;18.52;14.30;;;;;6.90;101251.00;;;;5089004;28;20390;-73
2021/07/23 08:32:09;;;;;;;26.58;16.13;;;;;6.90;101252.00;;;;5089117;28;20032;-73
2021/07/23 08:34:36;;;;;;;27.17;15.60;;;;;6.90;101255.00;;;;5089446;28;20031;-71
2021/07/23 08:37:03;;;;;;;23.95;15.27;;;;;6.80;101262.00;;;;5088830;28;20034;-71
2021/07/23 08:39:29;;;;;;;24.52;14.65;;;;;6.80;101262.00;;;;5089556;28;20028;-71
2021/07/23 08:41:57;;;;;;;17.00;13.27;;;;;6.80;101252.00;;;;5088808;28;20420;-73
2021/07/23 08:44:26;;;;;;;17.05;13.13;;;;;6.80;101234.00;;;;5089096;28;20051;-71
2021/07/23 08:46:55;;;;;;;21.95;14.65;;;;;6.80;101237.00;;;;5088670;28;20070;-71
2021/07/23 08:49:22;;;;;;;25.27;15.85;;;;;6.80;101246.00;;;;5089356;28;20129;-71
2021/07/23 08:51:50;;;;;;;26.58;10.57;;;;;6.80;101245.00;;;;5088842;28;20050;-73
2021/07/23 08:54:17;;;;;;;11.63;10.52;;;;;6.70;101265.00;;;;5088301;28;20036;-71
2021/07/23 08:56:48;;;;;;;16.17;12.30;;;;;6.70;101262.00;;;;5088556;28;20036;-72
2021/07/23 08:59:15;;;;;;;17.63;13.77;;;;;6.70;101255.00;;;;5088313;28;20112;-72
2021/07/23 09:02:06;;;;;;;18.33;13.82;;;;;6.60;101273.00;;;;5088963;28;20035;-71
2021/07/23 09:04:36;;;;;;;14.80;13.07;;;;;6.60;101272.00;;;;5088799;28;20471;-73
2021/07/23 09:07:15;;;;;;;16.83;13.18;;;;;6.70;101270.00;;;;5088480;28;20036;-70
2021/07/23 09:10:05;;;;;;;22.30;14.43;;;;;6.70;101276.00;;;;5087963;28;20056;-72
2021/07/23 09:12:46;;;;;;;19.75;13.55;;;;;6.70;101274.00;;;;5088574;28;20024;-71
2021/07/23 09:15:20;;;;;;;19.27;14.48;;;;;6.70;101271.00;;;;5087993;28;20032;-72
2021/07/23 09:17:47;;;;;;;17.67;13.55;;;;;6.70;101265.00;;;;5088202;28;20032;-73
2021/07/23 09:20:14;;;;;;;21.67;14.27;;;;;6.60;101272.00;;;;5088225;28;20398;-72
2021/07/23 09:22:45;;;;;;;24.58;14.55;;;;;6.60;101274.00;;;;5088351;28;20056;-73
2021/07/23 09:25:13;;;;;;;17.08;13.52;;;;;6.60;101261.00;;;;5089005;28;20028;-73
2021/07/23 09:27:40;;;;;;;16.92;13.15;;;;;6.60;101276.00;;;;5088361;28;20376;-71
2021/07/23 09:30:09;;;;;;;21.45;14.55;;;;;6.60;101277.00;;;;5087905;28;20031;-72
2021/07/23 09:32:37;;;;;;;22.52;15.02;;;;;6.70;101286.00;;;;5087573;28;20032;-74
2021/07/23 09:35:14;;;;;;;18.85;14.25;;;;;6.70;101280.00;;;;5087611;28;20409;-72
2021/07/23 09:38:00;;;;;;;22.58;14.52;;;;;6.70;101282.00;;;;5088175;28;20045;-73
2021/07/23 09:40:41;;;;;;;24.08;14.18;;;;;6.60;101279.00;;;;5087735;28;20036;-71
2021/07/23 09:43:07;;;;;;;22.13;14.57;;;;;6.70;101290.00;;;;5086650;28;20052;-73
2021/07/23 09:45:34;;;;;;;25.88;14.20;;;;;6.70;101286.00;;;;5086447;28;20574;-73
2021/07/23 09:48:12;;;;;;;25.77;14.52;;;;;6.70;101299.00;;;;5085592;28;20402;-73
2021/07/23 09:50:45;;;;;;;31.92;15.38;;;;;6.60;101303.00;;;;5087300;28;20046;-72
2021/07/23 09:53:25;;;;;;;24.95;14.65;;;;;6.60;101298.00;;;;5087550;28;20399;-73
2021/07/23 09:55:54;;;;;;;21.50;14.88;;;;;6.50;101290.00;;;;5088046;28;20107;-71
2021/07/23 09:58:21;;;;;;;23.00;14.30;;;;;6.50;101298.00;;;;5087604;28;20020;-71
2021/07/23 10:01:01;;;;;;;29.33;13.88;;;;;6.50;101303.00;;;;5086521;28;20080;-71
2021/07/23 10:03:28;;;;;;;23.70;15.20;;;;;6.60;101289.00;;;;5086673;28;20078;-69
2021/07/23 10:06:02;;;;;;;24.88;16.08;;;;;6.50;101292.00;;;;5084416;28;20547;-70
2021/07/23 10:08:43;;;;;;;21.60;15.30;;;;;6.60;101290.00;;;;5087282;28;21241;-73
2021/07/23 10:11:10;;;;;;;25.30;16.50;;;;;6.60;101292.00;;;;5087747;28;20024;-69
2021/07/23 10:13:41;;;;;;;22.13;16.83;;;;;6.60;101298.00;;;;5087942;28;20044;-71
2021/07/23 10:16:10;;;;;;;26.85;16.27;;;;;6.70;101295.00;;;;5087051;28;20521;-70
2021/07/23 10:18:38;;;;;;;22.80;14.65;;;;;6.60;101311.00;;;;5087104;28;20055;-71
2021/07/23 10:21:06;;;;;;;22.35;15.02;;;;;6.60;101319.00;;;;5087133;28;20518;-69
2021/07/23 10:23:36;;;;;;;19.63;13.68;;;;;6.60;101308.00;;;;5087200;28;20024;-66
2021/07/23 10:26:03;;;;;;;21.33;15.02;;;;;6.60;101317.00;;;;5087011;28;20502;-76
2021/07/23 10:28:39;;;;;;;20.77;15.10;;;;;6.70;101321.00;;;;5087554;28;20402;-70
2021/07/23 10:31:21;;;;;;;16.73;12.77;;;;;6.60;101327.00;;;;5087178;28;20451;-72
2021/07/23 10:34:06;;;;;;;;;;;;;6.70;101314.00;;;;5087817;28;20081;-71
2021/07/23 10:36:33;;;;;;;17.02;13.57;;;;;6.70;101326.00;;;;5086639;28;19916;-71
2021/07/23 10:39:06;;;;;;;16.30;12.40;;;;;6.80;101330.00;;;;5086804;28;20494;-73
2021/07/23 10:42:02;;;;;;;20.63;13.30;;;;;6.80;101332.00;;;;5086948;28;20031;-71
2021/07/23 10:44:29;;;;;;;39.22;14.98;;;;;6.90;101326.00;;;;5086699;28;20158;-71
2021/07/23 10:46:59;;;;;;;21.15;14.57;;;;;7.80;101221.00;;;;5086283;28;20024;-70
2021/07/23 10:49:31;;;;;;;23.80;13.07;;;;;8.60;101224.00;;;;5086706;28;20387;-72
2021/07/23 10:52:00;;;;;;;19.02;10.73;;;;;9.90;101145.00;;;;5086620;28;20020;-72
2021/07/23 10:54:34;;;;;;;22.98;9.63;;;;;11.40;101151.00;;;;5086903;28;20077;-72
2021/07/23 10:57:00;;;;;;;24.35;11.02;;;;;11.40;101184.00;;;;5087184;28;20035;-73
2021/07/23 10:59:39;;;;;;;30.00;12.50;;;;;12.70;101155.00;;;;5086251;28;20039;-71
2021/07/23 11:02:31;;;;;;;22.58;11.45;;;;;12.90;101206.00;;;;5086241;28;20028;-72
2021/07/23 11:05:06;;;;;;;15.75;9.77;;;;;12.50;101221.00;;;;5079700;28;20044;-70
2021/07/23 11:07:33;;;;;;;23.10;11.02;;;;;13.10;101194.00;;;;5087124;28;20081;-73
2021/07/23 11:10:00;;;;;;;32.50;11.55;;;;;12.30;101243.00;;;;5086776;28;20093;-70
2021/07/23 11:12:31;;;;;;;22.10;10.80;;;;;13.00;101193.00;;;;5086040;28;20460;-72
2021/07/23 11:14:59;;;;;;;22.85;10.50;;;;;12.90;101224.00;;;;5085934;28;20039;-71
2021/07/23 11:17:30;;;;;;;19.77;10.43;;;;;13.00;101161.00;;;;5089883;28;20024;-70
2021/07/23 11:19:59;;;;;;;18.77;10.23;;;;;13.70;101145.00;;;;5090843;28;20554;-71
2021/07/23 11:22:28;;;;;;;20.00;9.60;;;;;14.60;101154.00;;;;5090002;28;20085;-73
2021/07/23 11:24:57;;;;;;;26.17;9.55;;;;;15.70;101124.00;;;;5090306;28;20032;-72
2021/07/23 11:27:28;;;;;;;15.93;9.43;;;;;16.40;101127.00;;;;5090481;28;20042;-72
2021/07/23 11:29:56;;;;;;;17.45;9.55;;;;;15.10;101221.00;;;;5090753;28;20028;-72
2021/07/23 11:32:23;;;;;;;24.88;9.75;;;;;16.80;101155.00;;;;5090504;28;20036;-71
2021/07/23 11:35:10;;;;;;;27.30;9.27;;;;;18.40;101129.00;;;;5089967;28;20047;-73
2021/07/23 11:37:37;;;;;;;20.52;9.50;;;;;18.50;101117.00;;;;5090327;28;20024;-73
2021/07/23 11:40:09;;;;;;;23.45;9.98;;;;;18.90;101104.00;;;;5090503;28;20035;-72
2021/07/23 11:42:37;;;;;;;20.95;9.43;;;;;19.10;101114.00;;;;5090726;28;20107;-72
2021/07/23 11:45:06;;;;;;;22.25;12.93;;;;;19.40;101119.00;;;;5090082;28;20020;-70
2021/07/23 11:47:38;;;;;;;19.05;11.50;;;;;18.80;101123.00;;;;5090248;28;20028;-72
2021/07/23 11:50:10;;;;;;;23.00;12.10;;;;;19.20;101104.00;;;;5089330;28;20028;-70
2021/07/23 11:52:36;;;;;;;;;;;;;20.90;101131.00;;;;5090307;28;20024;-70
2021/07/23 11:55:07;;;;;;;21.73;11.65;;;;;19.90;101092.00;;;;5089880;28;19923;-71
2021/07/23 11:57:44;;;;;;;17.52;10.95;;;;;20.00;101092.00;;;;5090246;28;20402;-70
2021/07/23 12:00:20;;;;;;;25.83;9.50;;;;;20.00;101096.00;;;;5089868;28;20078;-72
2021/07/23 12:02:47;;;;;;;25.27;11.80;;;;;19.60;101100.00;;;;5089919;28;20034;-71
2021/07/23 12:05:16;;;;;;;20.98;10.10;;;;;19.60;101109.00;;;;5090485;28;20032;-73